sensor_id;sensor_type;location;lat;lon;timestamp;pressure;altitude;pressure_sealevel;temperature;humidity
13604;BME280;24578;48.264;11.436;2023-10-09T00:05:58;96835.28;;;11.71;100.00
13604;BME280;24578;48.264;11.436;2023-10-09T00:12:00;96822.13;;;11.74;100.00
13604;BME280;24578;48.264;11.436;2023-10-09T00:18:02;96815.03;;;11.76;100.00
13604;BME280;24578;48.264;11.436;2023-10-09T00:24:14;96805.72;;;11.73;100.00
13604;BME280;24578;48.264;11.436;2023-10-09T00:30:18;96797.13;;;11.73;100.00
13604;BME280;24578;48.264;11.436;2023-10-09T00:36:22;96781.44;;;11.75;100.00
13604;BME280;24578;48.264;11.436;2023-10-09T00:42:30;96771.91;;;11.75;100.00
13604;BME280;24578;48.264;11.436;2023-10-09T00:48:35;96766.63;;;11.77;100.00
13604;BME280;24578;48.264;11.436;2023-10-09T00:54:42;96765.28;;;11.71;100.00
13604;BME280;24578;48.264;11.436;2023-10-09T01:00:45;96750.31;;;11.62;100.00
13604;BME280;24578;48.264;11.436;2023-10-09T01:06:47;96754.38;;;11.53;100.00
13604;BME280;24578;48.264;11.436;2023-10-09T01:13:05;96743.91;;;11.41;100.00
13604;BME280;24578;48.264;11.436;2023-10-09T01:19:11;96738.22;;;11.36;100.00
13604;BME280;24578;48.264;11.436;2023-10-09T01:25:25;96738.50;;;11.32;100.00
13604;BME280;24578;48.264;11.436;2023-10-09T01:31:29;96735.91;;;11.32;100.00
13604;BME280;24578;48.264;11.436;2023-10-09T01:37:35;96730.97;;;11.29;100.00
13604;BME280;24578;48.264;11.436;2023-10-09T01:43:38;96727.84;;;11.23;100.00
13604;BME280;24578;48.264;11.436;2023-10-09T01:49:40;96718.00;;;11.16;100.00
13604;BME280;24578;48.264;11.436;2023-10-09T01:55:45;96711.03;;;11.16;100.00
13604;BME280;24578;48.264;11.436;2023-10-09T02:01:47;96704.94;;;11.17;100.00
13604;BME280;24578;48.264;11.436;2023-10-09T02:07:49;96698.31;;;11.13;100.00
13604;BME280;24578;48.264;11.436;2023-10-09T02:13:54;96697.66;;;11.09;100.00
13604;BME280;24578;48.264;11.436;2023-10-09T02:20:02;96699.53;;;11.07;100.00
13604;BME280;24578;48.264;11.436;2023-10-09T02:26:19;96687.63;;;11.05;100.00
13604;BME280;24578;48.264;11.436;2023-10-09T02:32:28;96690.41;;;11.02;100.00
13604;BME280;24578;48.264;11.436;2023-10-09T02:38:32;96679.75;;;10.93;100.00
13604;BME280;24578;48.264;11.436;2023-10-09T02:44:37;96674.47;;;10.82;100.00
13604;BME280;24578;48.264;11.436;2023-10-09T02:50:42;96666.66;;;10.69;100.00
13604;BME280;24578;48.264;11.436;2023-10-09T02:56:47;96666.56;;;10.58;100.00
13604;BME280;24578;48.264;11.436;2023-10-09T03:02:55;96653.47;;;10.46;100.00
13604;BME280;24578;48.264;11.436;2023-10-09T03:09:00;96656.69;;;10.35;100.00
13604;BME280;24578;48.264;11.436;2023-10-09T03:15:04;96650.41;;;10.27;100.00
13604;BME280;24578;48.264;11.436;2023-10-09T03:21:08;96647.34;;;10.20;100.00
13604;BME280;24578;48.264;11.436;2023-10-09T03:27:11;96647.63;;;10.15;100.00
13604;BME280;24578;48.264;11.436;2023-10-09T03:33:13;96643.50;;;10.13;100.00
13604;BME280;24578;48.264;11.436;2023-10-09T03:39:16;96639.63;;;10.05;100.00
13604;BME280;24578;48.264;11.436;2023-10-09T03:45:36;96646.69;;;10.03;100.00
13604;BME280;24578;48.264;11.436;2023-10-09T03:51:40;96645.03;;;10.02;100.00
13604;BME280;24578;48.264;11.436;2023-10-09T03:57:43;96635.63;;;10.01;100.00
13604;BME280;24578;48.264;11.436;2023-10-09T04:03:47;96637.06;;;10.05;100.00
13604;BME280;24578;48.264;11.436;2023-10-09T04:09:48;96640.38;;;10.08;100.00
13604;BME280;24578;48.264;11.436;2023-10-09T04:16:03;96644.63;;;10.09;100.00
13604;BME280;24578;48.264;11.436;2023-10-09T04:22:23;96640.19;;;10.11;100.00
13604;BME280;24578;48.264;11.436;2023-10-09T04:28:32;96630.56;;;10.13;100.00
13604;BME280;24578;48.264;11.436;2023-10-09T04:34:34;96639.88;;;10.15;100.00
13604;BME280;24578;48.264;11.436;2023-10-09T04:40:36;96629.22;;;10.20;100.00
13604;BME280;24578;48.264;11.436;2023-10-09T04:46:53;96620.53;;;10.21;100.00
13604;BME280;24578;48.264;11.436;2023-10-09T04:53:15;96618.38;;;10.28;100.00
13604;BME280;24578;48.264;11.436;2023-10-09T04:59:20;96617.81;;;10.37;100.00
13604;BME280;24578;48.264;11.436;2023-10-09T05:05:28;96628.72;;;10.55;100.00
13604;BME280;24578;48.264;11.436;2023-10-09T05:11:47;96628.66;;;10.70;100.00
13604;BME280;24578;48.264;11.436;2023-10-09T05:17:54;96640.47;;;10.87;100.00
13604;BME280;24578;48.264;11.436;2023-10-09T05:23:59;96645.75;;;10.98;100.00
13604;BME280;24578;48.264;11.436;2023-10-09T05:30:16;96635.41;;;11.11;100.00
13604;BME280;24578;48.264;11.436;2023-10-09T05:36:27;96640.94;;;11.56;100.00
13604;BME280;24578;48.264;11.436;2023-10-09T05:42:30;96629.22;;;12.01;100.00
13604;BME280;24578;48.264;11.436;2023-10-09T05:48:45;96639.22;;;12.18;100.00
13604;BME280;24578;48.264;11.436;2023-10-09T05:54:56;96633.63;;;12.36;100.00
13604;BME280;24578;48.264;11.436;2023-10-09T06:01:09;96633.81;;;12.57;100.00
13604;BME280;24578;48.264;11.436;2023-10-09T06:07:30;96638.13;;;12.92;100.00
13604;BME280;24578;48.264;11.436;2023-10-09T06:13:50;96630.75;;;13.45;100.00
13604;BME280;24578;48.264;11.436;2023-10-09T06:20:04;96633.75;;;14.28;100.00
13604;BME280;24578;48.264;11.436;2023-10-09T06:26:26;96636.94;;;14.85;100.00
13604;BME280;24578;48.264;11.436;2023-10-09T06:32:28;96632.56;;;14.86;100.00
13604;BME280;24578;48.264;11.436;2023-10-09T06:38:32;96640.84;;;15.22;100.00
13604;BME280;24578;48.264;11.436;2023-10-09T06:44:53;96641.75;;;15.42;100.00
13604;BME280;24578;48.264;11.436;2023-10-09T06:51:03;96641.38;;;15.57;100.00
13604;BME280;24578;48.264;11.436;2023-10-09T06:57:23;96653.72;;;15.55;100.00
13604;BME280;24578;48.264;11.436;2023-10-09T07:03:56;96655.94;;;15.90;100.00
13604;BME280;24578;48.264;11.436;2023-10-09T07:10:17;96661.69;;;17.22;100.00
13604;BME280;24578;48.264;11.436;2023-10-09T07:16:30;96652.53;;;18.92;81.48
13604;BME280;24578;48.264;11.436;2023-10-09T07:22:40;96655.75;;;19.99;70.20
13604;BME280;24578;48.264;11.436;2023-10-09T07:28:54;96650.69;;;22.88;55.16
13604;BME280;24578;48.264;11.436;2023-10-09T07:35:03;96635.88;;;24.93;47.55
13604;BME280;24578;48.264;11.436;2023-10-09T07:41:05;96628.97;;;24.49;46.79
13604;BME280;24578;48.264;11.436;2023-10-09T07:47:07;96642.59;;;22.66;51.38
13604;BME280;24578;48.264;11.436;2023-10-09T07:53:18;96650.53;;;22.66;52.72
13604;BME280;24578;48.264;11.436;2023-10-09T07:59:20;96648.94;;;23.18;51.69
13604;BME280;24578;48.264;11.436;2023-10-09T08:05:24;96666.59;;;22.79;52.65
13604;BME280;24578;48.264;11.436;2023-10-09T08:11:34;96674.16;;;22.04;54.49
13604;BME280;24578;48.264;11.436;2023-10-09T08:18:04;96664.03;;;21.85;55.33
13604;BME280;24578;48.264;11.436;2023-10-09T08:24:11;96671.25;;;22.92;52.47
13604;BME280;24578;48.264;11.436;2023-10-09T08:30:33;96664.72;;;23.71;50.26
13604;BME280;24578;48.264;11.436;2023-10-09T08:36:53;96664.78;;;23.63;49.26
13604;BME280;24578;48.264;11.436;2023-10-09T08:42:58;96664.41;;;22.83;51.26
13604;BME280;24578;48.264;11.436;2023-10-09T08:49:03;96659.94;;;22.37;52.30
13604;BME280;24578;48.264;11.436;2023-10-09T08:55:12;96675.66;;;21.99;54.62
13604;BME280;24578;48.264;11.436;2023-10-09T09:01:18;96677.06;;;21.78;54.19
13604;BME280;24578;48.264;11.436;2023-10-09T09:07:28;96692.63;;;21.96;54.11
13604;BME280;24578;48.264;11.436;2023-10-09T09:13:42;96686.47;;;22.04;54.66
13604;BME280;24578;48.264;11.436;2023-10-09T09:19:50;96687.28;;;22.36;54.34
13604;BME280;24578;48.264;11.436;2023-10-09T09:25:52;96682.78;;;22.76;52.78
13604;BME280;24578;48.264;11.436;2023-10-09T09:32:10;96677.72;;;23.28;51.61
13604;BME280;24578;48.264;11.436;2023-10-09T09:38:22;96683.91;;;22.97;51.70
13604;BME280;24578;48.264;11.436;2023-10-09T09:44:25;96684.63;;;22.91;50.70
13604;BME280;24578;48.264;11.436;2023-10-09T09:50:33;96691.44;;;22.85;49.91
13604;BME280;24578;48.264;11.436;2023-10-09T09:56:36;96695.22;;;22.68;49.84
13604;BME280;24578;48.264;11.436;2023-10-09T10:02:40;96700.53;;;22.83;49.59
13604;BME280;24578;48.264;11.436;2023-10-09T10:08:43;96699.22;;;23.02;49.47
13604;BME280;24578;48.264;11.436;2023-10-09T10:21:12;96700.66;;;23.27;48.38
13604;BME280;24578;48.264;11.436;2023-10-09T10:27:21;96692.88;;;23.49;48.17
13604;BME280;24578;48.264;11.436;2023-10-09T10:33:27;96693.56;;;23.73;47.95
13604;BME280;24578;48.264;11.436;2023-10-09T10:39:51;96687.50;;;23.72;47.14
13604;BME280;24578;48.264;11.436;2023-10-09T10:46:07;96695.84;;;23.91;47.08
13604;BME280;24578;48.264;11.436;2023-10-09T10:52:22;96688.00;;;24.13;46.59
13604;BME280;24578;48.264;11.436;2023-10-09T10:58:24;96688.50;;;24.23;45.50
13604;BME280;24578;48.264;11.436;2023-10-09T11:04:27;96679.03;;;24.94;44.35
13604;BME280;24578;48.264;11.436;2023-10-09T11:10:32;96668.84;;;26.52;41.54
13604;BME280;24578;48.264;11.436;2023-10-09T11:16:36;96666.66;;;27.95;39.95
13604;BME280;24578;48.264;11.436;2023-10-09T11:22:44;96664.19;;;26.60;39.47
13604;BME280;24578;48.264;11.436;2023-10-09T11:29:13;96662.38;;;26.06;40.58
13604;BME280;24578;48.264;11.436;2023-10-09T11:35:25;96657.25;;;26.73;39.55
13604;BME280;24578;48.264;11.436;2023-10-09T11:41:39;96658.75;;;25.65;40.65
13604;BME280;24578;48.264;11.436;2023-10-09T11:47:42;96643.84;;;25.29;41.44
13604;BME280;24578;48.264;11.436;2023-10-09T11:53:55;96648.38;;;24.78;42.63
13604;BME280;24578;48.264;11.436;2023-10-09T12:00:00;96651.44;;;24.82;43.65
13604;BME280;24578;48.264;11.436;2023-10-09T12:06:03;96653.16;;;24.46;43.50
13604;BME280;24578;48.264;11.436;2023-10-09T12:12:08;96654.47;;;24.35;43.86
13604;BME280;24578;48.264;11.436;2023-10-09T12:18:10;96658.34;;;24.17;44.19
13604;BME280;24578;48.264;11.436;2023-10-09T12:24:16;96660.44;;;23.70;45.66
13604;BME280;24578;48.264;11.436;2023-10-09T12:30:20;96667.88;;;23.22;46.19
13604;BME280;24578;48.264;11.436;2023-10-09T12:36:28;96661.88;;;22.90;46.41
13604;BME280;24578;48.264;11.436;2023-10-09T12:42:30;96660.38;;;22.49;47.78
13604;BME280;24578;48.264;11.436;2023-10-09T12:48:34;96666.09;;;22.29;48.72
13604;BME280;24578;48.264;11.436;2023-10-09T12:54:37;96662.06;;;22.18;49.60
13604;BME280;24578;48.264;11.436;2023-10-09T13:00:39;96667.31;;;22.18;49.48
13604;BME280;24578;48.264;11.436;2023-10-09T13:06:50;96668.25;;;22.26;50.16
13604;BME280;24578;48.264;11.436;2023-10-09T13:12:55;96657.09;;;21.92;51.28
13604;BME280;24578;48.264;11.436;2023-10-09T13:18:57;96666.25;;;21.65;53.84
13604;BME280;24578;48.264;11.436;2023-10-09T13:25:01;96659.03;;;21.50;54.80
13604;BME280;24578;48.264;11.436;2023-10-09T13:31:05;96657.59;;;21.31;56.48
13604;BME280;24578;48.264;11.436;2023-10-09T13:37:11;96647.75;;;21.25;58.14
13604;BME280;24578;48.264;11.436;2023-10-09T13:43:15;96673.47;;;20.81;65.54
13604;BME280;24578;48.264;11.436;2023-10-09T13:49:20;96682.41;;;20.29;80.78
13604;BME280;24578;48.264;11.436;2023-10-09T13:55:24;96655.59;;;20.09;88.31
13604;BME280;24578;48.264;11.436;2023-10-09T14:01:33;96615.06;;;19.69;86.81
13604;BME280;24578;48.264;11.436;2023-10-09T14:07:35;96611.59;;;19.60;84.94
13604;BME280;24578;48.264;11.436;2023-10-09T14:13:37;96622.75;;;19.54;88.52
13604;BME280;24578;48.264;11.436;2023-10-09T14:19:39;96636.13;;;19.42;88.90
13604;BME280;24578;48.264;11.436;2023-10-09T14:25:42;96619.59;;;19.50;89.43
13604;BME280;24578;48.264;11.436;2023-10-09T14:31:45;96610.59;;;19.61;90.04
13604;BME280;24578;48.264;11.436;2023-10-09T14:38:01;96629.66;;;19.63;90.24
13604;BME280;24578;48.264;11.436;2023-10-09T14:44:06;96628.31;;;19.59;90.88
13604;BME280;24578;48.264;11.436;2023-10-09T14:50:08;96637.28;;;19.40;91.85
13604;BME280;24578;48.264;11.436;2023-10-09T14:56:11;96625.94;;;19.39;92.81
13604;BME280;24578;48.264;11.436;2023-10-09T15:02:18;96635.63;;;19.39;90.14
13604;BME280;24578;48.264;11.436;2023-10-09T15:08:19;96633.59;;;19.32;88.98
13604;BME280;24578;48.264;11.436;2023-10-09T15:14:21;96634.38;;;19.25;88.80
13604;BME280;24578;48.264;11.436;2023-10-09T15:20:23;96616.34;;;19.22;87.74
13604;BME280;24578;48.264;11.436;2023-10-09T15:26:25;96613.06;;;19.20;88.96
13604;BME280;24578;48.264;11.436;2023-10-09T15:32:34;96600.56;;;19.13;88.13
13604;BME280;24578;48.264;11.436;2023-10-09T15:38:36;96602.63;;;19.01;91.30
13604;BME280;24578;48.264;11.436;2023-10-09T15:44:38;96585.97;;;18.93;94.05
13604;BME280;24578;48.264;11.436;2023-10-09T15:50:39;96585.56;;;18.79;96.00
13604;BME280;24578;48.264;11.436;2023-10-09T15:56:48;96574.75;;;18.74;96.78
13604;BME280;24578;48.264;11.436;2023-10-09T16:03:10;96568.16;;;18.70;93.73
13604;BME280;24578;48.264;11.436;2023-10-09T16:09:15;96576.66;;;18.46;97.33
13604;BME280;24578;48.264;11.436;2023-10-09T16:15:22;96583.25;;;18.32;100.00
13604;BME280;24578;48.264;11.436;2023-10-09T16:21:26;96595.78;;;18.20;100.00
13604;BME280;24578;48.264;11.436;2023-10-09T16:27:27;96597.69;;;18.00;100.00
13604;BME280;24578;48.264;11.436;2023-10-09T16:33:29;96588.09;;;17.90;100.00
13604;BME280;24578;48.264;11.436;2023-10-09T16:39:31;96586.38;;;17.81;100.00
13604;BME280;24578;48.264;11.436;2023-10-09T16:45:40;96584.78;;;17.70;100.00
13604;BME280;24578;48.264;11.436;2023-10-09T16:51:45;96595.31;;;17.60;100.00
13604;BME280;24578;48.264;11.436;2023-10-09T16:57:47;96589.16;;;17.52;100.00
13604;BME280;24578;48.264;11.436;2023-10-09T17:03:49;96581.06;;;17.45;100.00
13604;BME280;24578;48.264;11.436;2023-10-09T17:10:00;96585.47;;;17.44;100.00
13604;BME280;24578;48.264;11.436;2023-10-09T17:16:01;96581.22;;;17.43;100.00
13604;BME280;24578;48.264;11.436;2023-10-09T17:22:04;96572.81;;;17.40;100.00
13604;BME280;24578;48.264;11.436;2023-10-09T17:28:13;96570.34;;;17.38;100.00
13604;BME280;24578;48.264;11.436;2023-10-09T17:34:21;96566.81;;;17.29;100.00
13604;BME280;24578;48.264;11.436;2023-10-09T17:40:24;96580.47;;;17.23;100.00
13604;BME280;24578;48.264;11.436;2023-10-09T17:46:29;96569.50;;;17.10;100.00
13604;BME280;24578;48.264;11.436;2023-10-09T17:52:32;96575.63;;;17.00;100.00
13604;BME280;24578;48.264;11.436;2023-10-09T17:58:36;96576.72;;;16.88;100.00
13604;BME280;24578;48.264;11.436;2023-10-09T18:04:38;96576.16;;;16.84;100.00
13604;BME280;24578;48.264;11.436;2023-10-09T18:10:41;96571.25;;;16.81;100.00
13604;BME280;24578;48.264;11.436;2023-10-09T18:16:45;96571.50;;;16.88;100.00
13604;BME280;24578;48.264;11.436;2023-10-09T18:22:49;96585.13;;;16.82;100.00
13604;BME280;24578;48.264;11.436;2023-10-09T18:28:52;96590.78;;;16.67;100.00
13604;BME280;24578;48.264;11.436;2023-10-09T18:34:54;96592.03;;;16.63;100.00
13604;BME280;24578;48.264;11.436;2023-10-09T18:40:56;96598.50;;;16.59;100.00
13604;BME280;24578;48.264;11.436;2023-10-09T18:46:57;96589.69;;;16.60;100.00
13604;BME280;24578;48.264;11.436;2023-10-09T18:53:01;96587.91;;;16.61;100.00
13604;BME280;24578;48.264;11.436;2023-10-09T18:59:03;96589.84;;;16.58;100.00
13604;BME280;24578;48.264;11.436;2023-10-09T19:05:09;96589.84;;;16.58;100.00
13604;BME280;24578;48.264;11.436;2023-10-09T19:11:11;96598.66;;;16.57;100.00
13604;BME280;24578;48.264;11.436;2023-10-09T19:17:14;96598.38;;;16.51;100.00
13604;BME280;24578;48.264;11.436;2023-10-09T19:23:16;96604.56;;;16.40;100.00
13604;BME280;24578;48.264;11.436;2023-10-09T19:29:18;96594.53;;;16.35;100.00
13604;BME280;24578;48.264;11.436;2023-10-09T19:35:20;96597.44;;;16.32;100.00
13604;BME280;24578;48.264;11.436;2023-10-09T19:41:22;96589.19;;;16.27;100.00
13604;BME280;24578;48.264;11.436;2023-10-09T19:47:24;96602.66;;;16.22;100.00
13604;BME280;24578;48.264;11.436;2023-10-09T19:53:27;96596.88;;;16.19;100.00
13604;BME280;24578;48.264;11.436;2023-10-09T19:59:28;96596.63;;;16.22;100.00
13604;BME280;24578;48.264;11.436;2023-10-09T20:05:30;96600.19;;;16.21;100.00
13604;BME280;24578;48.264;11.436;2023-10-09T20:11:32;96601.03;;;16.11;100.00
13604;BME280;24578;48.264;11.436;2023-10-09T20:17:33;96618.03;;;16.06;100.00
13604;BME280;24578;48.264;11.436;2023-10-09T20:23:39;96622.69;;;16.02;100.00
13604;BME280;24578;48.264;11.436;2023-10-09T20:29:41;96624.06;;;15.96;100.00
13604;BME280;24578;48.264;11.436;2023-10-09T20:35:43;96631.63;;;15.90;100.00
13604;BME280;24578;48.264;11.436;2023-10-09T20:41:47;96628.31;;;15.88;100.00
13604;BME280;24578;48.264;11.436;2023-10-09T20:47:51;96640.09;;;15.82;100.00
13604;BME280;24578;48.264;11.436;2023-10-09T20:53:56;96642.41;;;15.75;100.00
13604;BME280;24578;48.264;11.436;2023-10-09T20:59:58;96655.28;;;15.67;100.00
13604;BME280;24578;48.264;11.436;2023-10-09T21:06:00;96654.56;;;15.55;100.00
13604;BME280;24578;48.264;11.436;2023-10-09T21:12:02;96657.84;;;15.47;100.00
13604;BME280;24578;48.264;11.436;2023-10-09T21:18:04;96660.25;;;15.39;100.00
13604;BME280;24578;48.264;11.436;2023-10-09T21:24:08;96662.00;;;15.29;100.00
13604;BME280;24578;48.264;11.436;2023-10-09T21:30:13;96665.38;;;15.19;100.00
13604;BME280;24578;48.264;11.436;2023-10-09T21:36:18;96666.63;;;15.15;100.00
13604;BME280;24578;48.264;11.436;2023-10-09T21:42:21;96666.03;;;15.12;100.00
13604;BME280;24578;48.264;11.436;2023-10-09T21:48:23;96662.03;;;15.07;100.00
13604;BME280;24578;48.264;11.436;2023-10-09T21:54:27;96670.22;;;15.03;100.00
13604;BME280;24578;48.264;11.436;2023-10-09T22:00:29;96665.94;;;14.92;100.00
13604;BME280;24578;48.264;11.436;2023-10-09T22:06:34;96668.00;;;14.77;100.00
13604;BME280;24578;48.264;11.436;2023-10-09T22:12:36;96668.78;;;14.68;100.00
13604;BME280;24578;48.264;11.436;2023-10-09T22:18:41;96675.16;;;14.64;100.00
13604;BME280;24578;48.264;11.436;2023-10-09T22:24:44;96666.19;;;14.56;100.00
13604;BME280;24578;48.264;11.436;2023-10-09T22:30:50;96671.75;;;14.52;100.00
13604;BME280;24578;48.264;11.436;2023-10-09T22:36:54;96673.66;;;14.50;100.00
13604;BME280;24578;48.264;11.436;2023-10-09T22:42:56;96666.81;;;14.49;100.00
13604;BME280;24578;48.264;11.436;2023-10-09T22:48:57;96662.28;;;14.51;100.00
13604;BME280;24578;48.264;11.436;2023-10-09T22:55:15;96653.72;;;14.39;100.00
13604;BME280;24578;48.264;11.436;2023-10-09T23:01:19;96662.03;;;14.32;100.00
13604;BME280;24578;48.264;11.436;2023-10-09T23:07:25;96666.91;;;14.26;100.00
13604;BME280;24578;48.264;11.436;2023-10-09T23:13:27;96668.09;;;14.22;100.00
13604;BME280;24578;48.264;11.436;2023-10-09T23:19:36;96674.84;;;14.13;100.00
13604;BME280;24578;48.264;11.436;2023-10-09T23:25:40;96682.56;;;14.03;100.00
13604;BME280;24578;48.264;11.436;2023-10-09T23:31:51;96682.72;;;13.90;100.00
13604;BME280;24578;48.264;11.436;2023-10-09T23:37:59;96688.53;;;13.82;100.00
13604;BME280;24578;48.264;11.436;2023-10-09T23:44:20;96693.16;;;13.67;100.00
13604;BME280;24578;48.264;11.436;2023-10-09T23:50:26;96689.72;;;13.55;100.00
13604;BME280;24578;48.264;11.436;2023-10-09T23:56:33;96699.53;;;13.40;100.00
